sensor_id;sensor_type;location;lat;lon;timestamp;pressure;altitude;pressure_sealevel;temperature;humidity
6218;BME280;3142;48.206;11.550;2023-02-22T00:00:50;95679.41;;;10.53;57.88
6218;BME280;3142;48.206;11.550;2023-02-22T00:03:21;95680.03;;;10.42;58.64
6218;BME280;3142;48.206;11.550;2023-02-22T00:05:53;95680.38;;;10.25;59.89
6218;BME280;3142;48.206;11.550;2023-02-22T00:08:26;95670.84;;;10.11;60.44
6218;BME280;3142;48.206;11.550;2023-02-22T00:10:54;95671.06;;;10.09;59.90
6218;BME280;3142;48.206;11.550;2023-02-22T00:13:21;95672.06;;;10.08;60.79
6218;BME280;3142;48.206;11.550;2023-02-22T00:15:47;95665.44;;;10.13;60.41
6218;BME280;3142;48.206;11.550;2023-02-22T00:18:16;95661.41;;;10.10;60.19
6218;BME280;3142;48.206;11.550;2023-02-22T00:20:43;95661.22;;;10.12;60.06
6218;BME280;3142;48.206;11.550;2023-02-22T00:23:13;95654.63;;;10.22;60.35
6218;BME280;3142;48.206;11.550;2023-02-22T00:25:44;95659.47;;;10.25;60.51
6218;BME280;3142;48.206;11.550;2023-02-22T00:28:11;95662.28;;;10.24;59.77
6218;BME280;3142;48.206;11.550;2023-02-22T00:30:39;95656.84;;;10.25;59.89
6218;BME280;3142;48.206;11.550;2023-02-22T00:33:08;95660.03;;;10.21;59.17
6218;BME280;3142;48.206;11.550;2023-02-22T00:35:35;95660.41;;;10.11;59.39
6218;BME280;3142;48.206;11.550;2023-02-22T00:38:03;95652.31;;;9.99;59.37
6218;BME280;3142;48.206;11.550;2023-02-22T00:40:31;95655.19;;;10.11;59.79
6218;BME280;3142;48.206;11.550;2023-02-22T00:43:00;95656.66;;;10.27;58.92
6218;BME280;3142;48.206;11.550;2023-02-22T00:45:28;95656.69;;;10.47;58.34
6218;BME280;3142;48.206;11.550;2023-02-22T00:47:55;95661.31;;;10.45;58.64
6218;BME280;3142;48.206;11.550;2023-02-22T00:50:23;95660.31;;;10.59;57.94
6218;BME280;3142;48.206;11.550;2023-02-22T00:52:51;95662.72;;;10.67;57.96
6218;BME280;3142;48.206;11.550;2023-02-22T00:55:20;95657.09;;;10.63;57.58
6218;BME280;3142;48.206;11.550;2023-02-22T00:57:47;95657.91;;;10.64;56.99
6218;BME280;3142;48.206;11.550;2023-02-22T01:00:18;95659.53;;;10.58;56.97
6218;BME280;3142;48.206;11.550;2023-02-22T01:02:46;95653.66;;;10.36;57.75
6218;BME280;3142;48.206;11.550;2023-02-22T01:05:17;95653.25;;;10.33;57.75
6218;BME280;3142;48.206;11.550;2023-02-22T01:07:44;95657.06;;;10.30;57.97
6218;BME280;3142;48.206;11.550;2023-02-22T01:10:11;95651.56;;;10.12;58.43
6218;BME280;3142;48.206;11.550;2023-02-22T01:12:38;95646.75;;;10.16;58.84
6218;BME280;3142;48.206;11.550;2023-02-22T01:15:07;95643.78;;;10.32;57.55
6218;BME280;3142;48.206;11.550;2023-02-22T01:17:37;95643.59;;;10.33;57.66
6218;BME280;3142;48.206;11.550;2023-02-22T01:20:08;95636.97;;;10.31;57.71
6218;BME280;3142;48.206;11.550;2023-02-22T01:22:37;95646.34;;;10.19;57.65
6218;BME280;3142;48.206;11.550;2023-02-22T01:25:04;95635.91;;;10.19;57.73
6218;BME280;3142;48.206;11.550;2023-02-22T01:27:31;95632.44;;;10.12;57.11
6218;BME280;3142;48.206;11.550;2023-02-22T01:29:58;95629.44;;;10.01;57.67
6218;BME280;3142;48.206;11.550;2023-02-22T01:32:24;95635.06;;;10.05;58.28
6218;BME280;3142;48.206;11.550;2023-02-22T01:34:53;95630.41;;;10.00;57.70
6218;BME280;3142;48.206;11.550;2023-02-22T01:37:19;95636.84;;;9.98;58.66
6218;BME280;3142;48.206;11.550;2023-02-22T01:39:46;95637.03;;;9.96;58.46
6218;BME280;3142;48.206;11.550;2023-02-22T01:42:12;95625.56;;;9.84;59.00
6218;BME280;3142;48.206;11.550;2023-02-22T01:44:38;95619.97;;;9.87;59.35
6218;BME280;3142;48.206;11.550;2023-02-22T01:47:06;95619.13;;;9.87;59.08
6218;BME280;3142;48.206;11.550;2023-02-22T01:49:35;95618.53;;;9.85;58.84
6218;BME280;3142;48.206;11.550;2023-02-22T01:52:09;95626.16;;;9.86;59.02
6218;BME280;3142;48.206;11.550;2023-02-22T01:54:38;95621.56;;;9.88;59.39
6218;BME280;3142;48.206;11.550;2023-02-22T01:57:11;95616.50;;;9.73;59.03
6218;BME280;3142;48.206;11.550;2023-02-22T01:59:42;95620.03;;;9.59;60.24
6218;BME280;3142;48.206;11.550;2023-02-22T02:02:10;95619.56;;;9.42;60.03
6218;BME280;3142;48.206;11.550;2023-02-22T02:04:37;95614.28;;;9.29;60.09
6218;BME280;3142;48.206;11.550;2023-02-22T02:07:11;95610.38;;;9.05;61.88
6218;BME280;3142;48.206;11.550;2023-02-22T02:09:46;95618.66;;;8.87;62.34
6218;BME280;3142;48.206;11.550;2023-02-22T02:12:18;95609.34;;;8.72;61.46
6218;BME280;3142;48.206;11.550;2023-02-22T02:14:47;95603.41;;;8.56;63.11
6218;BME280;3142;48.206;11.550;2023-02-22T02:17:15;95604.13;;;8.72;61.63
6218;BME280;3142;48.206;11.550;2023-02-22T02:19:49;95596.53;;;8.49;62.06
6218;BME280;3142;48.206;11.550;2023-02-22T02:22:29;95600.28;;;8.40;61.90
6218;BME280;3142;48.206;11.550;2023-02-22T02:31:23;95588.25;;;8.39;61.86
6218;BME280;3142;48.206;11.550;2023-02-22T02:33:58;95591.84;;;8.38;62.80
6218;BME280;3142;48.206;11.550;2023-02-22T02:36:30;95581.22;;;8.39;62.61
6218;BME280;3142;48.206;11.550;2023-02-22T02:39:04;95576.56;;;8.35;62.05
6218;BME280;3142;48.206;11.550;2023-02-22T02:41:34;95580.78;;;8.36;61.37
6218;BME280;3142;48.206;11.550;2023-02-22T02:44:04;95574.13;;;8.33;60.38
6218;BME280;3142;48.206;11.550;2023-02-22T02:46:42;95575.50;;;8.29;61.49
6218;BME280;3142;48.206;11.550;2023-02-22T02:49:15;95563.69;;;8.33;60.91
6218;BME280;3142;48.206;11.550;2023-02-22T02:51:49;95562.09;;;8.32;61.17
6218;BME280;3142;48.206;11.550;2023-02-22T02:54:19;95565.69;;;8.31;60.91
6218;BME280;3142;48.206;11.550;2023-02-22T02:56:47;95558.59;;;8.40;59.90
6218;BME280;3142;48.206;11.550;2023-02-22T02:59:25;95562.41;;;8.44;60.38
6218;BME280;3142;48.206;11.550;2023-02-22T03:02:00;95553.59;;;8.45;60.50
6218;BME280;3142;48.206;11.550;2023-02-22T03:04:37;95552.47;;;8.54;59.38
6218;BME280;3142;48.206;11.550;2023-02-22T03:07:32;95548.69;;;8.63;59.44
6218;BME280;3142;48.206;11.550;2023-02-22T03:10:16;95555.66;;;8.84;59.92
6218;BME280;3142;48.206;11.550;2023-02-22T03:12:49;95552.50;;;8.95;59.92
6218;BME280;3142;48.206;11.550;2023-02-22T03:15:31;95550.50;;;8.97;60.30
6218;BME280;3142;48.206;11.550;2023-02-22T03:18:03;95552.75;;;9.07;59.43
6218;BME280;3142;48.206;11.550;2023-02-22T03:20:41;95556.44;;;9.19;59.87
6218;BME280;3142;48.206;11.550;2023-02-22T03:23:14;95550.63;;;9.30;58.35
6218;BME280;3142;48.206;11.550;2023-02-22T03:25:50;95549.88;;;9.36;59.17
6218;BME280;3142;48.206;11.550;2023-02-22T03:28:19;95552.69;;;9.35;59.18
6218;BME280;3142;48.206;11.550;2023-02-22T03:30:48;95548.88;;;9.44;58.01
6218;BME280;3142;48.206;11.550;2023-02-22T03:33:19;95551.94;;;9.47;57.48
6218;BME280;3142;48.206;11.550;2023-02-22T03:35:56;95549.63;;;9.31;57.40
6218;BME280;3142;48.206;11.550;2023-02-22T03:38:26;95556.41;;;9.12;58.34
6218;BME280;3142;48.206;11.550;2023-02-22T03:40:58;95562.41;;;9.13;58.51
6218;BME280;3142;48.206;11.550;2023-02-22T03:43:29;95561.81;;;9.17;57.53
6218;BME280;3142;48.206;11.550;2023-02-22T03:45:59;95568.38;;;9.00;57.48
6218;BME280;3142;48.206;11.550;2023-02-22T03:48:30;95571.78;;;8.94;58.77
6218;BME280;3142;48.206;11.550;2023-02-22T03:51:02;95578.94;;;8.85;58.72
6218;BME280;3142;48.206;11.550;2023-02-22T03:53:31;95576.31;;;8.79;59.06
6218;BME280;3142;48.206;11.550;2023-02-22T03:55:58;95573.22;;;8.69;59.63
6218;BME280;3142;48.206;11.550;2023-02-22T03:58:29;95579.97;;;8.63;60.33
6218;BME280;3142;48.206;11.550;2023-02-22T04:00:57;95577.03;;;8.66;60.92
6218;BME280;3142;48.206;11.550;2023-02-22T04:03:24;95576.41;;;8.36;61.88
6218;BME280;3142;48.206;11.550;2023-02-22T04:05:50;95571.78;;;8.17;62.78
6218;BME280;3142;48.206;11.550;2023-02-22T04:08:18;95571.19;;;8.36;61.66
6218;BME280;3142;48.206;11.550;2023-02-22T04:10:44;95571.44;;;8.48;61.43
6218;BME280;3142;48.206;11.550;2023-02-22T04:13:11;95569.94;;;8.60;61.58
6218;BME280;3142;48.206;11.550;2023-02-22T04:15:39;95571.75;;;8.59;60.67
6218;BME280;3142;48.206;11.550;2023-02-22T04:18:05;95567.13;;;8.61;60.58
6218;BME280;3142;48.206;11.550;2023-02-22T04:20:32;95567.63;;;8.72;59.87
6218;BME280;3142;48.206;11.550;2023-02-22T04:22:59;95563.97;;;8.66;61.33
6218;BME280;3142;48.206;11.550;2023-02-22T04:25:27;95559.38;;;8.68;61.15
6218;BME280;3142;48.206;11.550;2023-02-22T04:27:53;95561.91;;;8.61;59.91
6218;BME280;3142;48.206;11.550;2023-02-22T04:30:20;95556.19;;;8.45;61.45
6218;BME280;3142;48.206;11.550;2023-02-22T04:32:46;95558.47;;;8.33;60.95
6218;BME280;3142;48.206;11.550;2023-02-22T04:35:13;95564.19;;;8.37;61.58
6218;BME280;3142;48.206;11.550;2023-02-22T04:37:40;95555.16;;;8.39;61.26
6218;BME280;3142;48.206;11.550;2023-02-22T04:40:07;95552.66;;;8.31;61.41
6218;BME280;3142;48.206;11.550;2023-02-22T04:42:37;95553.44;;;8.25;61.46
6218;BME280;3142;48.206;11.550;2023-02-22T04:45:06;95554.84;;;8.27;62.09
6218;BME280;3142;48.206;11.550;2023-02-22T04:47:33;95547.91;;;8.35;60.79
6218;BME280;3142;48.206;11.550;2023-02-22T04:49:59;95548.19;;;8.46;60.52
6218;BME280;3142;48.206;11.550;2023-02-22T04:52:26;95548.00;;;8.48;60.28
6218;BME280;3142;48.206;11.550;2023-02-22T04:54:53;95546.75;;;8.37;60.72
6218;BME280;3142;48.206;11.550;2023-02-22T04:57:19;95540.06;;;8.35;60.56
6218;BME280;3142;48.206;11.550;2023-02-22T04:59:47;95542.63;;;8.28;61.40
6218;BME280;3142;48.206;11.550;2023-02-22T05:02:15;95545.53;;;8.18;60.53
6218;BME280;3142;48.206;11.550;2023-02-22T05:04:41;95549.72;;;8.13;60.98
6218;BME280;3142;48.206;11.550;2023-02-22T05:07:08;95546.63;;;8.02;61.68
6218;BME280;3142;48.206;11.550;2023-02-22T05:09:35;95554.56;;;7.73;62.29
6218;BME280;3142;48.206;11.550;2023-02-22T05:12:01;95542.72;;;7.70;62.69
6218;BME280;3142;48.206;11.550;2023-02-22T05:14:28;95544.16;;;7.73;63.21
6218;BME280;3142;48.206;11.550;2023-02-22T05:16:56;95540.44;;;7.82;62.84
6218;BME280;3142;48.206;11.550;2023-02-22T05:19:23;95538.00;;;7.81;62.97
6218;BME280;3142;48.206;11.550;2023-02-22T05:21:50;95532.13;;;7.72;63.62
6218;BME280;3142;48.206;11.550;2023-02-22T05:24:16;95530.31;;;7.72;62.81
6218;BME280;3142;48.206;11.550;2023-02-22T05:26:43;95527.09;;;7.70;63.69
6218;BME280;3142;48.206;11.550;2023-02-22T05:29:10;95531.63;;;7.62;63.91
6218;BME280;3142;48.206;11.550;2023-02-22T05:31:37;95526.66;;;7.67;63.27
6218;BME280;3142;48.206;11.550;2023-02-22T05:34:07;95526.78;;;7.80;63.54
6218;BME280;3142;48.206;11.550;2023-02-22T05:36:33;95527.28;;;7.90;63.58
6218;BME280;3142;48.206;11.550;2023-02-22T05:39:00;95522.75;;;7.99;63.53
6218;BME280;3142;48.206;11.550;2023-02-22T05:41:27;95518.34;;;7.99;62.79
6218;BME280;3142;48.206;11.550;2023-02-22T05:43:53;95516.47;;;7.93;63.53
6218;BME280;3142;48.206;11.550;2023-02-22T05:46:20;95517.00;;;7.82;63.40
6218;BME280;3142;48.206;11.550;2023-02-22T05:48:46;95521.44;;;7.88;63.16
6218;BME280;3142;48.206;11.550;2023-02-22T05:51:14;95516.94;;;7.76;63.05
6218;BME280;3142;48.206;11.550;2023-02-22T05:53:40;95510.13;;;7.75;62.33
6218;BME280;3142;48.206;11.550;2023-02-22T05:56:07;95507.81;;;7.65;63.05
6218;BME280;3142;48.206;11.550;2023-02-22T05:58:34;95519.03;;;7.65;62.33
6218;BME280;3142;48.206;11.550;2023-02-22T06:01:00;95518.59;;;7.62;62.25
6218;BME280;3142;48.206;11.550;2023-02-22T06:03:26;95513.06;;;7.50;63.10
6218;BME280;3142;48.206;11.550;2023-02-22T06:05:53;95512.09;;;7.51;62.68
6218;BME280;3142;48.206;11.550;2023-02-22T06:08:21;95515.06;;;7.27;64.17
6218;BME280;3142;48.206;11.550;2023-02-22T06:10:47;95511.50;;;7.13;65.18
6218;BME280;3142;48.206;11.550;2023-02-22T06:13:13;95512.94;;;7.01;65.67
6218;BME280;3142;48.206;11.550;2023-02-22T06:15:40;95515.09;;;6.82;66.67
6218;BME280;3142;48.206;11.550;2023-02-22T06:18:06;95522.56;;;6.86;66.80
6218;BME280;3142;48.206;11.550;2023-02-22T06:20:32;95518.34;;;6.84;67.00
6218;BME280;3142;48.206;11.550;2023-02-22T06:22:59;95525.44;;;6.91;67.30
6218;BME280;3142;48.206;11.550;2023-02-22T06:25:28;95528.03;;;6.91;66.64
6218;BME280;3142;48.206;11.550;2023-02-22T06:27:56;95520.09;;;6.99;66.33
6218;BME280;3142;48.206;11.550;2023-02-22T06:30:24;95526.03;;;7.07;66.15
6218;BME280;3142;48.206;11.550;2023-02-22T06:32:51;95531.41;;;7.06;66.44
6218;BME280;3142;48.206;11.550;2023-02-22T06:35:18;95525.84;;;7.09;66.85
6218;BME280;3142;48.206;11.550;2023-02-22T06:37:45;95531.31;;;7.14;66.46
6218;BME280;3142;48.206;11.550;2023-02-22T06:40:12;95535.69;;;7.28;66.37
6218;BME280;3142;48.206;11.550;2023-02-22T06:42:40;95530.63;;;7.41;66.06
6218;BME280;3142;48.206;11.550;2023-02-22T06:45:08;95534.31;;;7.54;65.22
6218;BME280;3142;48.206;11.550;2023-02-22T06:47:37;95534.66;;;7.65;64.92
6218;BME280;3142;48.206;11.550;2023-02-22T06:50:05;95541.78;;;7.99;64.39
6218;BME280;3142;48.206;11.550;2023-02-22T06:52:31;95544.41;;;8.27;62.97
6218;BME280;3142;48.206;11.550;2023-02-22T06:54:58;95550.78;;;8.46;63.14
6218;BME280;3142;48.206;11.550;2023-02-22T06:57:24;95546.84;;;8.57;62.66
6218;BME280;3142;48.206;11.550;2023-02-22T06:59:52;95550.22;;;8.79;61.28
6218;BME280;3142;48.206;11.550;2023-02-22T07:02:18;95539.84;;;8.92;61.00
6218;BME280;3142;48.206;11.550;2023-02-22T07:04:45;95546.94;;;9.05;59.74
6218;BME280;3142;48.206;11.550;2023-02-22T07:07:11;95547.16;;;9.10;59.75
6218;BME280;3142;48.206;11.550;2023-02-22T07:09:38;95543.94;;;9.14;58.82
6218;BME280;3142;48.206;11.550;2023-02-22T07:12:04;95551.63;;;9.23;58.60
6218;BME280;3142;48.206;11.550;2023-02-22T07:14:31;95550.22;;;9.27;58.47
6218;BME280;3142;48.206;11.550;2023-02-22T07:16:59;95543.44;;;9.39;56.84
6218;BME280;3142;48.206;11.550;2023-02-22T07:19:26;95544.25;;;9.33;57.09
6218;BME280;3142;48.206;11.550;2023-02-22T07:21:52;95546.09;;;9.52;56.00
6218;BME280;3142;48.206;11.550;2023-02-22T07:24:23;95541.13;;;9.70;54.83
6218;BME280;3142;48.206;11.550;2023-02-22T07:26:50;95538.66;;;9.56;54.32
6218;BME280;3142;48.206;11.550;2023-02-22T07:29:16;95547.50;;;9.55;53.65
6218;BME280;3142;48.206;11.550;2023-02-22T07:31:43;95544.53;;;9.64;53.15
6218;BME280;3142;48.206;11.550;2023-02-22T07:34:10;95542.69;;;9.58;52.02
6218;BME280;3142;48.206;11.550;2023-02-22T07:36:37;95540.47;;;9.55;53.06
6218;BME280;3142;48.206;11.550;2023-02-22T07:39:03;95542.34;;;9.81;52.42
6218;BME280;3142;48.206;11.550;2023-02-22T07:41:32;95536.94;;;9.96;51.30
6218;BME280;3142;48.206;11.550;2023-02-22T07:43:59;95535.97;;;10.17;51.83
6218;BME280;3142;48.206;11.550;2023-02-22T07:46:25;95537.16;;;10.60;50.11
6218;BME280;3142;48.206;11.550;2023-02-22T07:48:52;95527.03;;;10.90;49.37
6218;BME280;3142;48.206;11.550;2023-02-22T07:51:19;95527.53;;;11.19;48.38
6218;BME280;3142;48.206;11.550;2023-02-22T07:53:47;95518.97;;;11.37;47.56
6218;BME280;3142;48.206;11.550;2023-02-22T07:56:13;95527.59;;;11.50;46.76
6218;BME280;3142;48.206;11.550;2023-02-22T07:58:40;95527.06;;;11.80;46.16
6218;BME280;3142;48.206;11.550;2023-02-22T08:01:06;95521.09;;;11.98;45.35
6218;BME280;3142;48.206;11.550;2023-02-22T08:03:33;95517.41;;;12.05;44.67
6218;BME280;3142;48.206;11.550;2023-02-22T08:06:02;95512.75;;;12.32;44.07
6218;BME280;3142;48.206;11.550;2023-02-22T08:08:30;95513.31;;;12.59;43.67
6218;BME280;3142;48.206;11.550;2023-02-22T08:10:57;95516.09;;;13.01;43.73
6218;BME280;3142;48.206;11.550;2023-02-22T08:13:23;95514.34;;;13.50;42.65
6218;BME280;3142;48.206;11.550;2023-02-22T08:15:51;95512.44;;;13.87;41.89
6218;BME280;3142;48.206;11.550;2023-02-22T08:18:19;95506.75;;;14.25;41.63
6218;BME280;3142;48.206;11.550;2023-02-22T08:20:47;95498.03;;;14.55;41.56
6218;BME280;3142;48.206;11.550;2023-02-22T08:23:15;95495.00;;;14.86;43.61
6218;BME280;3142;48.206;11.550;2023-02-22T08:25:44;95490.28;;;15.11;43.56
6218;BME280;3142;48.206;11.550;2023-02-22T08:28:13;95486.44;;;15.31;43.51
6218;BME280;3142;48.206;11.550;2023-02-22T08:30:40;95494.53;;;15.41;43.69
6218;BME280;3142;48.206;11.550;2023-02-22T08:33:08;95492.34;;;15.50;43.28
6218;BME280;3142;48.206;11.550;2023-02-22T08:35:38;95486.56;;;15.64;42.74
6218;BME280;3142;48.206;11.550;2023-02-22T08:38:06;95488.06;;;15.60;43.11
6218;BME280;3142;48.206;11.550;2023-02-22T08:40:35;95485.53;;;15.65;42.87
6218;BME280;3142;48.206;11.550;2023-02-22T08:43:04;95485.88;;;15.86;42.89
6218;BME280;3142;48.206;11.550;2023-02-22T08:45:30;95485.84;;;16.31;41.23
6218;BME280;3142;48.206;11.550;2023-02-22T08:47:57;95475.97;;;16.60;41.17
6218;BME280;3142;48.206;11.550;2023-02-22T08:50:29;95480.00;;;16.84;41.03
6218;BME280;3142;48.206;11.550;2023-02-22T08:52:59;95477.44;;;17.11;39.13
6218;BME280;3142;48.206;11.550;2023-02-22T08:55:27;95485.81;;;17.25;39.56
6218;BME280;3142;48.206;11.550;2023-02-22T08:57:54;95477.25;;;17.40;39.41
6218;BME280;3142;48.206;11.550;2023-02-22T09:00:22;95474.94;;;17.43;39.38
6218;BME280;3142;48.206;11.550;2023-02-22T09:02:49;95477.03;;;17.20;40.33
6218;BME280;3142;48.206;11.550;2023-02-22T09:05:16;95472.22;;;17.38;38.94
6218;BME280;3142;48.206;11.550;2023-02-22T09:07:43;95478.66;;;17.69;37.98
6218;BME280;3142;48.206;11.550;2023-02-22T09:10:12;95469.81;;;17.86;38.19
6218;BME280;3142;48.206;11.550;2023-02-22T09:12:40;95460.31;;;18.22;37.40
6218;BME280;3142;48.206;11.550;2023-02-22T09:15:07;95471.06;;;18.37;37.30
6218;BME280;3142;48.206;11.550;2023-02-22T09:17:36;95464.81;;;18.58;36.18
6218;BME280;3142;48.206;11.550;2023-02-22T09:20:03;95458.25;;;18.29;34.56
6218;BME280;3142;48.206;11.550;2023-02-22T09:22:29;95455.59;;;18.24;33.04
6218;BME280;3142;48.206;11.550;2023-02-22T09:24:55;95460.72;;;18.41;31.99
6218;BME280;3142;48.206;11.550;2023-02-22T09:27:22;95462.41;;;18.20;31.33
6218;BME280;3142;48.206;11.550;2023-02-22T09:29:52;95453.09;;;18.49;31.55
6218;BME280;3142;48.206;11.550;2023-02-22T09:32:18;95455.72;;;18.86;31.39
6218;BME280;3142;48.206;11.550;2023-02-22T09:34:46;95449.75;;;19.16;30.91
6218;BME280;3142;48.206;11.550;2023-02-22T09:37:12;95455.53;;;19.03;30.44
6218;BME280;3142;48.206;11.550;2023-02-22T09:39:39;95455.53;;;18.98;30.55
6218;BME280;3142;48.206;11.550;2023-02-22T09:42:10;95447.88;;;19.12;31.00
6218;BME280;3142;48.206;11.550;2023-02-22T09:44:42;95456.06;;;19.00;30.46
6218;BME280;3142;48.206;11.550;2023-02-22T09:47:14;95444.19;;;19.13;30.60
6218;BME280;3142;48.206;11.550;2023-02-22T09:49:51;95443.69;;;19.31;29.88
6218;BME280;3142;48.206;11.550;2023-02-22T09:52:24;95447.00;;;19.59;29.78
6218;BME280;3142;48.206;11.550;2023-02-22T09:55:05;95439.59;;;19.61;29.85
6218;BME280;3142;48.206;11.550;2023-02-22T09:57:36;95438.28;;;19.83;29.92
6218;BME280;3142;48.206;11.550;2023-02-22T10:00:11;95435.34;;;20.00;29.12
6218;BME280;3142;48.206;11.550;2023-02-22T10:02:44;95427.13;;;20.12;29.61
6218;BME280;3142;48.206;11.550;2023-02-22T10:05:17;95425.03;;;20.45;29.46
6218;BME280;3142;48.206;11.550;2023-02-22T10:07:50;95425.78;;;20.25;29.86
6218;BME280;3142;48.206;11.550;2023-02-22T10:10:21;95426.06;;;20.18;29.69
6218;BME280;3142;48.206;11.550;2023-02-22T10:12:56;95418.88;;;20.34;30.12
6218;BME280;3142;48.206;11.550;2023-02-22T10:15:41;95422.03;;;20.41;30.86
6218;BME280;3142;48.206;11.550;2023-02-22T10:21:11;95410.13;;;20.49;30.40
6218;BME280;3142;48.206;11.550;2023-02-22T10:23:48;95411.91;;;20.68;30.17
6218;BME280;3142;48.206;11.550;2023-02-22T10:26:22;95406.41;;;21.19;29.86
6218;BME280;3142;48.206;11.550;2023-02-22T10:28:53;95406.16;;;21.65;29.89
6218;BME280;3142;48.206;11.550;2023-02-22T10:31:24;95412.88;;;21.97;29.61
6218;BME280;3142;48.206;11.550;2023-02-22T10:33:54;95399.88;;;21.90;29.25
6218;BME280;3142;48.206;11.550;2023-02-22T10:36:24;95403.16;;;21.77;29.31
6218;BME280;3142;48.206;11.550;2023-02-22T10:38:54;95405.56;;;21.34;29.17
6218;BME280;3142;48.206;11.550;2023-02-22T10:41:26;95403.50;;;21.26;29.52
6218;BME280;3142;48.206;11.550;2023-02-22T10:43:54;95405.00;;;21.37;29.73
6218;BME280;3142;48.206;11.550;2023-02-22T10:46:21;95398.84;;;21.47;29.66
6218;BME280;3142;48.206;11.550;2023-02-22T10:48:51;95407.00;;;21.66;29.17
6218;BME280;3142;48.206;11.550;2023-02-22T10:51:17;95398.66;;;21.38;28.41
6218;BME280;3142;48.206;11.550;2023-02-22T10:53:58;95393.91;;;21.20;29.06
6218;BME280;3142;48.206;11.550;2023-02-22T10:56:28;95399.38;;;20.89;29.64
6218;BME280;3142;48.206;11.550;2023-02-22T10:58:56;95399.72;;;20.62;30.22
6218;BME280;3142;48.206;11.550;2023-02-22T11:01:33;95394.47;;;20.06;30.90
6218;BME280;3142;48.206;11.550;2023-02-22T11:04:04;95398.97;;;19.80;31.70
6218;BME280;3142;48.206;11.550;2023-02-22T11:06:33;95390.22;;;20.05;31.30
6218;BME280;3142;48.206;11.550;2023-02-22T11:09:10;95393.16;;;19.89;31.74
6218;BME280;3142;48.206;11.550;2023-02-22T11:11:39;95387.84;;;19.78;32.07
6218;BME280;3142;48.206;11.550;2023-02-22T11:14:07;95384.91;;;19.95;32.17
6218;BME280;3142;48.206;11.550;2023-02-22T11:16:36;95383.28;;;20.20;32.30
6218;BME280;3142;48.206;11.550;2023-02-22T11:19:11;95373.13;;;20.62;31.65
6218;BME280;3142;48.206;11.550;2023-02-22T11:21:42;95376.28;;;20.75;31.04
6218;BME280;3142;48.206;11.550;2023-02-22T11:24:12;95363.44;;;20.97;31.56
6218;BME280;3142;48.206;11.550;2023-02-22T11:26:42;95364.38;;;21.26;31.19
6218;BME280;3142;48.206;11.550;2023-02-22T11:29:12;95356.56;;;21.40;30.76
6218;BME280;3142;48.206;11.550;2023-02-22T11:31:41;95355.34;;;21.17;30.11
6218;BME280;3142;48.206;11.550;2023-02-22T11:34:24;95352.91;;;21.21;31.01
6218;BME280;3142;48.206;11.550;2023-02-22T11:36:51;95349.47;;;21.20;30.57
6218;BME280;3142;48.206;11.550;2023-02-22T11:39:24;95347.59;;;21.26;30.75
6218;BME280;3142;48.206;11.550;2023-02-22T11:41:52;95343.00;;;21.37;30.88
6218;BME280;3142;48.206;11.550;2023-02-22T11:44:23;95348.47;;;21.11;31.02
6218;BME280;3142;48.206;11.550;2023-02-22T11:46:50;95342.06;;;21.12;31.79
6218;BME280;3142;48.206;11.550;2023-02-22T11:49:20;95335.38;;;21.25;31.46
6218;BME280;3142;48.206;11.550;2023-02-22T11:52:00;95324.06;;;21.43;31.19
6218;BME280;3142;48.206;11.550;2023-02-22T11:54:50;95321.09;;;21.84;30.92
6218;BME280;3142;48.206;11.550;2023-02-22T11:57:44;95326.22;;;22.04;30.46
6218;BME280;3142;48.206;11.550;2023-02-22T12:00:20;95320.19;;;21.94;30.17
6218;BME280;3142;48.206;11.550;2023-02-22T12:03:12;95319.28;;;21.74;29.67
6218;BME280;3142;48.206;11.550;2023-02-22T12:05:59;95321.19;;;21.35;30.09
6218;BME280;3142;48.206;11.550;2023-02-22T12:08:38;95322.59;;;21.27;30.31
6218;BME280;3142;48.206;11.550;2023-02-22T12:11:13;95318.72;;;20.99;30.58
6218;BME280;3142;48.206;11.550;2023-02-22T12:14:01;95319.59;;;20.79;30.97
6218;BME280;3142;48.206;11.550;2023-02-22T12:16:39;95312.22;;;20.71;31.18
6218;BME280;3142;48.206;11.550;2023-02-22T12:19:17;95305.53;;;20.79;31.36
6218;BME280;3142;48.206;11.550;2023-02-22T12:21:51;95310.72;;;21.04;30.85
6218;BME280;3142;48.206;11.550;2023-02-22T12:24:22;95304.06;;;21.02;30.70
6218;BME280;3142;48.206;11.550;2023-02-22T12:26:53;95299.91;;;20.85;30.89
6218;BME280;3142;48.206;11.550;2023-02-22T12:29:26;95304.28;;;20.56;30.92
6218;BME280;3142;48.206;11.550;2023-02-22T12:31:57;95306.19;;;20.45;31.30
6218;BME280;3142;48.206;11.550;2023-02-22T12:34:30;95299.34;;;20.19;31.10
6218;BME280;3142;48.206;11.550;2023-02-22T12:37:14;95298.84;;;19.96;31.49
6218;BME280;3142;48.206;11.550;2023-02-22T12:39:48;95300.75;;;19.75;32.11
6218;BME280;3142;48.206;11.550;2023-02-22T12:42:25;95296.72;;;19.42;32.10
6218;BME280;3142;48.206;11.550;2023-02-22T12:44:58;95294.34;;;19.26;32.53
6218;BME280;3142;48.206;11.550;2023-02-22T12:47:30;95296.19;;;19.30;33.19
6218;BME280;3142;48.206;11.550;2023-02-22T12:50:04;95291.44;;;19.22;33.00
6218;BME280;3142;48.206;11.550;2023-02-22T12:52:41;95294.03;;;19.02;33.01
6218;BME280;3142;48.206;11.550;2023-02-22T12:55:13;95287.91;;;18.91;34.09
6218;BME280;3142;48.206;11.550;2023-02-22T12:57:48;95295.59;;;18.82;34.05
6218;BME280;3142;48.206;11.550;2023-02-22T13:00:20;95282.06;;;18.84;34.13
6218;BME280;3142;48.206;11.550;2023-02-22T13:02:57;95282.59;;;18.91;34.22
6218;BME280;3142;48.206;11.550;2023-02-22T13:05:29;95281.00;;;18.85;34.56
6218;BME280;3142;48.206;11.550;2023-02-22T13:08:10;95276.66;;;18.53;34.94
6218;BME280;3142;48.206;11.550;2023-02-22T13:10:56;95275.03;;;18.37;35.72
6218;BME280;3142;48.206;11.550;2023-02-22T13:13:31;95274.44;;;18.30;36.07
6218;BME280;3142;48.206;11.550;2023-02-22T13:16:06;95270.47;;;18.32;36.05
6218;BME280;3142;48.206;11.550;2023-02-22T13:18:40;95265.44;;;18.26;36.24
6218;BME280;3142;48.206;11.550;2023-02-22T13:21:14;95267.03;;;18.27;36.21
6218;BME280;3142;48.206;11.550;2023-02-22T13:23:47;95259.03;;;18.22;36.39
6218;BME280;3142;48.206;11.550;2023-02-22T13:26:21;95265.69;;;18.29;36.77
6218;BME280;3142;48.206;11.550;2023-02-22T13:28:54;95261.78;;;18.37;36.55
6218;BME280;3142;48.206;11.550;2023-02-22T13:31:39;95254.91;;;18.46;37.14
6218;BME280;3142;48.206;11.550;2023-02-22T13:34:32;95260.50;;;18.55;37.12
6218;BME280;3142;48.206;11.550;2023-02-22T13:37:38;95253.88;;;18.62;36.95
6218;BME280;3142;48.206;11.550;2023-02-22T13:43:21;95247.00;;;18.56;36.82